sensor_id;sensor_type;location;lat;lon;timestamp;P1;durP1;ratioP1;P2;durP2;ratioP2
35330;SDS011;21441;52.190;20.910;2024-01-16T00:02:21;2.58;;;1.35;;
35330;SDS011;21441;52.190;20.910;2024-01-16T00:04:48;1.73;;;1.00;;
35330;SDS011;21441;52.190;20.910;2024-01-16T00:07:15;0.98;;;0.88;;
35330;SDS011;21441;52.190;20.910;2024-01-16T00:09:42;2.13;;;1.30;;
35330;SDS011;21441;52.190;20.910;2024-01-16T00:12:09;2.35;;;1.23;;
35330;SDS011;21441;52.190;20.910;2024-01-16T00:14:36;2.38;;;1.55;;
35330;SDS011;21441;52.190;20.910;2024-01-16T00:17:05;1.23;;;1.13;;
35330;SDS011;21441;52.190;20.910;2024-01-16T00:19:32;3.88;;;1.38;;
35330;SDS011;21441;52.190;20.910;2024-01-16T00:21:59;2.90;;;1.58;;
35330;SDS011;21441;52.190;20.910;2024-01-16T00:24:28;3.75;;;1.50;;
35330;SDS011;21441;52.190;20.910;2024-01-16T00:26:55;2.90;;;1.70;;
35330;SDS011;21441;52.190;20.910;2024-01-16T00:29:22;2.28;;;1.20;;
35330;SDS011;21441;52.190;20.910;2024-01-16T00:31:49;1.85;;;1.20;;
35330;SDS011;21441;52.190;20.910;2024-01-16T00:34:18;2.78;;;1.67;;
35330;SDS011;21441;52.190;20.910;2024-01-16T00:36:45;2.65;;;1.15;;
35330;SDS011;21441;52.190;20.910;2024-01-16T00:39:12;1.30;;;1.10;;
35330;SDS011;21441;52.190;20.910;2024-01-16T00:41:40;1.90;;;1.05;;
35330;SDS011;21441;52.190;20.910;2024-01-16T00:44:07;2.25;;;1.27;;
35330;SDS011;21441;52.190;20.910;2024-01-16T00:46:34;1.88;;;1.00;;
35330;SDS011;21441;52.190;20.910;2024-01-16T00:49:01;6.95;;;1.60;;
35330;SDS011;21441;52.190;20.910;2024-01-16T00:51:29;2.58;;;1.33;;
35330;SDS011;21441;52.190;20.910;2024-01-16T00:53:56;2.45;;;1.23;;
35330;SDS011;21441;52.190;20.910;2024-01-16T00:56:24;2.40;;;1.20;;
35330;SDS011;21441;52.190;20.910;2024-01-16T00:58:52;1.80;;;1.20;;
35330;SDS011;21441;52.190;20.910;2024-01-16T01:01:20;2.55;;;1.55;;
35330;SDS011;21441;52.190;20.910;2024-01-16T01:03:47;2.42;;;1.30;;
35330;SDS011;21441;52.190;20.910;2024-01-16T01:06:14;2.28;;;1.90;;
35330;SDS011;21441;52.190;20.910;2024-01-16T01:08:42;2.97;;;1.48;;
35330;SDS011;21441;52.190;20.910;2024-01-16T01:11:10;2.75;;;1.77;;
35330;SDS011;21441;52.190;20.910;2024-01-16T01:13:37;2.30;;;1.27;;
35330;SDS011;21441;52.190;20.910;2024-01-16T01:16:05;3.80;;;1.88;;
35330;SDS011;21441;52.190;20.910;2024-01-16T01:18:32;1.52;;;1.10;;
35330;SDS011;21441;52.190;20.910;2024-01-16T01:20:59;3.47;;;1.67;;
35330;SDS011;21441;52.190;20.910;2024-01-16T01:23:26;3.17;;;1.80;;
35330;SDS011;21441;52.190;20.910;2024-01-16T01:25:55;2.60;;;1.75;;
35330;SDS011;21441;52.190;20.910;2024-01-16T01:28:22;1.30;;;1.20;;
35330;SDS011;21441;52.190;20.910;2024-01-16T01:30:49;2.15;;;1.83;;
35330;SDS011;21441;52.190;20.910;2024-01-16T01:33:16;2.33;;;1.73;;
35330;SDS011;21441;52.190;20.910;2024-01-16T01:35:44;1.75;;;1.20;;
35330;SDS011;21441;52.190;20.910;2024-01-16T01:38:11;2.63;;;1.48;;
35330;SDS011;21441;52.190;20.910;2024-01-16T01:40:38;4.22;;;1.52;;
35330;SDS011;21441;52.190;20.910;2024-01-16T01:43:20;1.75;;;1.20;;
35330;SDS011;21441;52.190;20.910;2024-01-16T01:45:53;1.60;;;1.08;;
35330;SDS011;21441;52.190;20.910;2024-01-16T01:48:33;2.25;;;1.33;;
35330;SDS011;21441;52.190;20.910;2024-01-16T01:51:01;4.90;;;1.35;;
35330;SDS011;21441;52.190;20.910;2024-01-16T01:53:29;1.88;;;1.10;;
35330;SDS011;21441;52.190;20.910;2024-01-16T01:55:58;1.25;;;1.15;;
35330;SDS011;21441;52.190;20.910;2024-01-16T01:58:30;1.42;;;1.08;;
35330;SDS011;21441;52.190;20.910;2024-01-16T02:00:58;1.08;;;0.90;;
35330;SDS011;21441;52.190;20.910;2024-01-16T02:03:27;2.58;;;1.33;;
35330;SDS011;21441;52.190;20.910;2024-01-16T02:05:56;1.27;;;1.17;;
35330;SDS011;21441;52.190;20.910;2024-01-16T02:08:23;2.13;;;1.50;;
35330;SDS011;21441;52.190;20.910;2024-01-16T02:10:51;3.55;;;1.55;;
35330;SDS011;21441;52.190;20.910;2024-01-16T02:13:18;1.60;;;1.45;;
35330;SDS011;21441;52.190;20.910;2024-01-16T02:15:50;2.85;;;1.65;;
35330;SDS011;21441;52.190;20.910;2024-01-16T02:18:17;1.83;;;1.55;;
35330;SDS011;21441;52.190;20.910;2024-01-16T02:20:44;3.35;;;1.65;;
35330;SDS011;21441;52.190;20.910;2024-01-16T02:23:14;3.25;;;1.85;;
35330;SDS011;21441;52.190;20.910;2024-01-16T02:25:44;4.40;;;1.73;;
35330;SDS011;21441;52.190;20.910;2024-01-16T02:28:11;2.05;;;1.48;;
35330;SDS011;21441;52.190;20.910;2024-01-16T02:30:38;2.35;;;1.20;;
35330;SDS011;21441;52.190;20.910;2024-01-16T02:35:35;1.42;;;1.00;;
35330;SDS011;21441;52.190;20.910;2024-01-16T02:38:02;2.88;;;1.42;;
35330;SDS011;21441;52.190;20.910;2024-01-16T02:40:30;5.28;;;1.90;;
35330;SDS011;21441;52.190;20.910;2024-01-16T02:42:58;1.85;;;1.38;;
35330;SDS011;21441;52.190;20.910;2024-01-16T02:45:25;3.58;;;1.45;;
35330;SDS011;21441;52.190;20.910;2024-01-16T02:47:52;1.80;;;1.35;;
35330;SDS011;21441;52.190;20.910;2024-01-16T02:50:20;3.17;;;1.45;;
35330;SDS011;21441;52.190;20.910;2024-01-16T02:52:46;3.17;;;1.30;;
35330;SDS011;21441;52.190;20.910;2024-01-16T02:55:14;3.03;;;1.20;;
35330;SDS011;21441;52.190;20.910;2024-01-16T02:57:41;6.70;;;1.27;;
35330;SDS011;21441;52.190;20.910;2024-01-16T03:00:10;1.40;;;1.30;;
35330;SDS011;21441;52.190;20.910;2024-01-16T03:02:39;1.35;;;1.23;;
35330;SDS011;21441;52.190;20.910;2024-01-16T03:05:06;1.77;;;1.10;;
35330;SDS011;21441;52.190;20.910;2024-01-16T03:07:34;2.15;;;1.67;;
35330;SDS011;21441;52.190;20.910;2024-01-16T03:10:02;2.58;;;1.10;;
35330;SDS011;21441;52.190;20.910;2024-01-16T03:12:29;1.55;;;1.30;;
35330;SDS011;21441;52.190;20.910;2024-01-16T03:14:56;2.42;;;1.33;;
35330;SDS011;21441;52.190;20.910;2024-01-16T03:17:25;3.38;;;1.30;;
35330;SDS011;21441;52.190;20.910;2024-01-16T03:19:52;2.92;;;1.20;;
35330;SDS011;21441;52.190;20.910;2024-01-16T03:22:19;2.33;;;1.48;;
35330;SDS011;21441;52.190;20.910;2024-01-16T03:24:48;1.98;;;1.38;;
35330;SDS011;21441;52.190;20.910;2024-01-16T03:27:15;1.95;;;1.05;;
35330;SDS011;21441;52.190;20.910;2024-01-16T03:29:42;2.67;;;1.20;;
35330;SDS011;21441;52.190;20.910;2024-01-16T03:32:09;2.08;;;1.48;;
35330;SDS011;21441;52.190;20.910;2024-01-16T03:34:38;2.92;;;1.45;;
35330;SDS011;21441;52.190;20.910;2024-01-16T03:37:05;1.73;;;1.38;;
35330;SDS011;21441;52.190;20.910;2024-01-16T03:39:32;1.40;;;1.30;;
35330;SDS011;21441;52.190;20.910;2024-01-16T03:41:59;2.20;;;1.52;;
35330;SDS011;21441;52.190;20.910;2024-01-16T03:44:27;3.90;;;2.00;;
35330;SDS011;21441;52.190;20.910;2024-01-16T03:46:54;6.03;;;1.90;;
35330;SDS011;21441;52.190;20.910;2024-01-16T03:49:21;3.10;;;1.50;;
35330;SDS011;21441;52.190;20.910;2024-01-16T03:51:49;1.95;;;1.30;;
35330;SDS011;21441;52.190;20.910;2024-01-16T03:54:16;2.38;;;2.00;;
35330;SDS011;21441;52.190;20.910;2024-01-16T03:56:43;1.77;;;1.63;;
35330;SDS011;21441;52.190;20.910;2024-01-16T03:59:10;3.95;;;3.13;;
35330;SDS011;21441;52.190;20.910;2024-01-16T04:01:38;3.33;;;1.80;;
35330;SDS011;21441;52.190;20.910;2024-01-16T04:04:06;4.15;;;1.88;;
35330;SDS011;21441;52.190;20.910;2024-01-16T04:06:33;3.63;;;1.98;;
35330;SDS011;21441;52.190;20.910;2024-01-16T04:09:02;2.97;;;2.00;;
35330;SDS011;21441;52.190;20.910;2024-01-16T04:11:30;3.35;;;2.00;;
35330;SDS011;21441;52.190;20.910;2024-01-16T04:13:57;3.70;;;2.05;;
35330;SDS011;21441;52.190;20.910;2024-01-16T04:16:24;2.38;;;1.77;;
35330;SDS011;21441;52.190;20.910;2024-01-16T04:18:51;3.90;;;1.70;;
35330;SDS011;21441;52.190;20.910;2024-01-16T04:21:18;2.30;;;2.03;;
35330;SDS011;21441;52.190;20.910;2024-01-16T04:23:45;3.60;;;1.95;;
35330;SDS011;21441;52.190;20.910;2024-01-16T04:26:14;4.50;;;2.03;;
35330;SDS011;21441;52.190;20.910;2024-01-16T04:28:41;4.53;;;2.40;;
35330;SDS011;21441;52.190;20.910;2024-01-16T04:31:09;2.72;;;2.20;;
35330;SDS011;21441;52.190;20.910;2024-01-16T04:33:37;3.40;;;2.17;;
35330;SDS011;21441;52.190;20.910;2024-01-16T04:36:04;3.17;;;2.25;;
35330;SDS011;21441;52.190;20.910;2024-01-16T04:38:32;3.72;;;2.25;;
35330;SDS011;21441;52.190;20.910;2024-01-16T04:41:00;4.97;;;2.20;;
35330;SDS011;21441;52.190;20.910;2024-01-16T04:43:29;3.90;;;2.40;;
35330;SDS011;21441;52.190;20.910;2024-01-16T04:45:57;2.80;;;2.20;;
35330;SDS011;21441;52.190;20.910;2024-01-16T04:48:24;4.72;;;2.58;;
35330;SDS011;21441;52.190;20.910;2024-01-16T04:50:51;2.72;;;2.08;;
35330;SDS011;21441;52.190;20.910;2024-01-16T04:53:18;2.60;;;1.95;;
35330;SDS011;21441;52.190;20.910;2024-01-16T04:55:45;3.60;;;2.42;;
35330;SDS011;21441;52.190;20.910;2024-01-16T04:58:12;2.85;;;1.90;;
35330;SDS011;21441;52.190;20.910;2024-01-16T05:00:41;2.88;;;1.85;;
35330;SDS011;21441;52.190;20.910;2024-01-16T05:03:08;5.15;;;2.42;;
35330;SDS011;21441;52.190;20.910;2024-01-16T05:05:35;3.30;;;1.98;;
35330;SDS011;21441;52.190;20.910;2024-01-16T05:08:02;3.60;;;2.30;;
35330;SDS011;21441;52.190;20.910;2024-01-16T05:10:29;2.92;;;2.53;;
35330;SDS011;21441;52.190;20.910;2024-01-16T05:12:57;2.35;;;2.08;;
35330;SDS011;21441;52.190;20.910;2024-01-16T05:15:24;4.80;;;2.03;;
35330;SDS011;21441;52.190;20.910;2024-01-16T05:17:53;4.45;;;2.38;;
35330;SDS011;21441;52.190;20.910;2024-01-16T05:20:19;3.47;;;2.15;;
35330;SDS011;21441;52.190;20.910;2024-01-16T05:22:47;4.75;;;2.15;;
35330;SDS011;21441;52.190;20.910;2024-01-16T05:25:14;4.20;;;2.47;;
35330;SDS011;21441;52.190;20.910;2024-01-16T05:27:42;5.07;;;2.30;;
35330;SDS011;21441;52.190;20.910;2024-01-16T05:30:10;4.63;;;2.17;;
35330;SDS011;21441;52.190;20.910;2024-01-16T05:32:37;3.67;;;2.58;;
35330;SDS011;21441;52.190;20.910;2024-01-16T05:35:08;7.00;;;2.75;;
35330;SDS011;21441;52.190;20.910;2024-01-16T05:37:36;3.65;;;2.47;;
35330;SDS011;21441;52.190;20.910;2024-01-16T05:40:03;5.38;;;2.63;;
35330;SDS011;21441;52.190;20.910;2024-01-16T05:42:33;9.02;;;4.57;;
35330;SDS011;21441;52.190;20.910;2024-01-16T05:45:00;4.40;;;2.78;;
35330;SDS011;21441;52.190;20.910;2024-01-16T05:47:28;4.85;;;2.72;;
35330;SDS011;21441;52.190;20.910;2024-01-16T05:49:56;4.43;;;3.38;;
35330;SDS011;21441;52.190;20.910;2024-01-16T05:52:25;4.75;;;2.45;;
35330;SDS011;21441;52.190;20.910;2024-01-16T05:54:52;3.70;;;2.60;;
35330;SDS011;21441;52.190;20.910;2024-01-16T05:57:23;6.50;;;2.95;;
35330;SDS011;21441;52.190;20.910;2024-01-16T05:59:50;4.85;;;2.83;;
35330;SDS011;21441;52.190;20.910;2024-01-16T06:02:17;8.18;;;3.55;;
35330;SDS011;21441;52.190;20.910;2024-01-16T06:04:44;5.60;;;3.22;;
35330;SDS011;21441;52.190;20.910;2024-01-16T06:07:11;4.03;;;2.28;;
35330;SDS011;21441;52.190;20.910;2024-01-16T06:09:40;5.70;;;3.70;;
35330;SDS011;21441;52.190;20.910;2024-01-16T06:12:08;4.90;;;3.50;;
35330;SDS011;21441;52.190;20.910;2024-01-16T06:14:35;3.03;;;2.60;;
35330;SDS011;21441;52.190;20.910;2024-01-16T06:17:02;4.93;;;3.00;;
35330;SDS011;21441;52.190;20.910;2024-01-16T06:19:31;7.55;;;3.72;;
35330;SDS011;21441;52.190;20.910;2024-01-16T06:21:58;6.40;;;3.22;;
35330;SDS011;21441;52.190;20.910;2024-01-16T06:24:25;7.43;;;3.58;;
35330;SDS011;21441;52.190;20.910;2024-01-16T06:26:54;8.18;;;3.20;;
35330;SDS011;21441;52.190;20.910;2024-01-16T06:29:21;4.63;;;2.88;;
35330;SDS011;21441;52.190;20.910;2024-01-16T06:31:49;5.05;;;3.25;;
35330;SDS011;21441;52.190;20.910;2024-01-16T06:34:16;4.38;;;3.00;;
35330;SDS011;21441;52.190;20.910;2024-01-16T06:36:43;3.88;;;3.20;;
35330;SDS011;21441;52.190;20.910;2024-01-16T06:39:10;7.13;;;3.83;;
35330;SDS011;21441;52.190;20.910;2024-01-16T06:41:40;11.48;;;3.78;;
35330;SDS011;21441;52.190;20.910;2024-01-16T06:44:08;9.95;;;3.60;;
35330;SDS011;21441;52.190;20.910;2024-01-16T06:46:36;6.90;;;3.60;;
35330;SDS011;21441;52.190;20.910;2024-01-16T06:49:03;5.63;;;3.15;;
35330;SDS011;21441;52.190;20.910;2024-01-16T06:51:30;5.82;;;2.90;;
35330;SDS011;21441;52.190;20.910;2024-01-16T06:53:57;4.18;;;3.45;;
35330;SDS011;21441;52.190;20.910;2024-01-16T06:56:24;5.47;;;3.65;;
35330;SDS011;21441;52.190;20.910;2024-01-16T06:58:51;4.80;;;3.97;;
35330;SDS011;21441;52.190;20.910;2024-01-16T07:01:19;5.43;;;2.90;;
35330;SDS011;21441;52.190;20.910;2024-01-16T07:03:46;4.55;;;2.70;;
35330;SDS011;21441;52.190;20.910;2024-01-16T07:06:14;5.45;;;3.10;;
35330;SDS011;21441;52.190;20.910;2024-01-16T07:08:41;4.55;;;3.00;;
35330;SDS011;21441;52.190;20.910;2024-01-16T07:11:08;6.85;;;3.00;;
35330;SDS011;21441;52.190;20.910;2024-01-16T07:13:38;6.88;;;3.00;;
35330;SDS011;21441;52.190;20.910;2024-01-16T07:16:05;5.28;;;2.65;;
35330;SDS011;21441;52.190;20.910;2024-01-16T07:18:34;4.25;;;2.35;;
35330;SDS011;21441;52.190;20.910;2024-01-16T07:21:01;3.92;;;2.08;;
35330;SDS011;21441;52.190;20.910;2024-01-16T07:23:28;4.88;;;1.85;;
35330;SDS011;21441;52.190;20.910;2024-01-16T07:25:56;4.43;;;2.33;;
35330;SDS011;21441;52.190;20.910;2024-01-16T07:28:23;5.60;;;1.95;;
35330;SDS011;21441;52.190;20.910;2024-01-16T07:30:52;3.22;;;2.75;;
35330;SDS011;21441;52.190;20.910;2024-01-16T07:35:49;7.30;;;2.90;;
35330;SDS011;21441;52.190;20.910;2024-01-16T07:38:15;4.60;;;3.33;;
35330;SDS011;21441;52.190;20.910;2024-01-16T07:40:43;4.40;;;2.67;;
35330;SDS011;21441;52.190;20.910;2024-01-16T07:43:10;3.72;;;2.50;;
35330;SDS011;21441;52.190;20.910;2024-01-16T07:45:38;5.18;;;2.85;;
35330;SDS011;21441;52.190;20.910;2024-01-16T07:48:05;5.13;;;3.05;;
35330;SDS011;21441;52.190;20.910;2024-01-16T07:50:34;4.20;;;2.60;;
35330;SDS011;21441;52.190;20.910;2024-01-16T07:53:05;3.28;;;2.20;;
35330;SDS011;21441;52.190;20.910;2024-01-16T07:55:35;5.15;;;1.88;;
35330;SDS011;21441;52.190;20.910;2024-01-16T07:58:05;5.30;;;1.88;;
35330;SDS011;21441;52.190;20.910;2024-01-16T08:00:35;5.88;;;2.75;;
35330;SDS011;21441;52.190;20.910;2024-01-16T08:03:03;4.40;;;2.15;;
35330;SDS011;21441;52.190;20.910;2024-01-16T08:05:31;4.07;;;2.25;;
35330;SDS011;21441;52.190;20.910;2024-01-16T08:07:57;4.18;;;2.05;;
35330;SDS011;21441;52.190;20.910;2024-01-16T08:10:26;3.10;;;1.80;;
35330;SDS011;21441;52.190;20.910;2024-01-16T08:12:53;4.18;;;2.10;;
35330;SDS011;21441;52.190;20.910;2024-01-16T08:15:21;6.45;;;2.30;;
35330;SDS011;21441;52.190;20.910;2024-01-16T08:17:48;4.47;;;1.65;;
35330;SDS011;21441;52.190;20.910;2024-01-16T08:20:15;3.13;;;1.83;;
35330;SDS011;21441;52.190;20.910;2024-01-16T08:22:42;5.53;;;2.30;;
35330;SDS011;21441;52.190;20.910;2024-01-16T08:25:09;5.03;;;2.10;;
35330;SDS011;21441;52.190;20.910;2024-01-16T08:27:38;3.40;;;2.20;;
35330;SDS011;21441;52.190;20.910;2024-01-16T08:30:06;4.22;;;2.10;;
35330;SDS011;21441;52.190;20.910;2024-01-16T08:32:34;4.07;;;1.90;;
35330;SDS011;21441;52.190;20.910;2024-01-16T08:35:01;4.80;;;1.90;;
35330;SDS011;21441;52.190;20.910;2024-01-16T08:37:28;3.88;;;1.98;;
35330;SDS011;21441;52.190;20.910;2024-01-16T08:39:55;6.50;;;2.83;;
35330;SDS011;21441;52.190;20.910;2024-01-16T08:42:22;5.47;;;3.17;;
35330;SDS011;21441;52.190;20.910;2024-01-16T08:44:51;6.13;;;2.63;;
35330;SDS011;21441;52.190;20.910;2024-01-16T08:47:17;9.15;;;3.20;;
35330;SDS011;21441;52.190;20.910;2024-01-16T08:49:45;5.90;;;3.38;;
35330;SDS011;21441;52.190;20.910;2024-01-16T08:52:12;6.53;;;3.03;;
35330;SDS011;21441;52.190;20.910;2024-01-16T08:54:40;6.85;;;2.55;;
35330;SDS011;21441;52.190;20.910;2024-01-16T08:57:07;2.30;;;2.08;;
35330;SDS011;21441;52.190;20.910;2024-01-16T08:59:36;2.45;;;1.70;;
35330;SDS011;21441;52.190;20.910;2024-01-16T09:02:04;6.80;;;2.58;;
35330;SDS011;21441;52.190;20.910;2024-01-16T09:04:31;5.10;;;2.72;;
35330;SDS011;21441;52.190;20.910;2024-01-16T09:06:59;4.10;;;2.40;;
35330;SDS011;21441;52.190;20.910;2024-01-16T09:09:26;3.72;;;2.20;;
35330;SDS011;21441;52.190;20.910;2024-01-16T09:11:53;4.15;;;2.30;;
35330;SDS011;21441;52.190;20.910;2024-01-16T09:14:20;4.53;;;2.08;;
35330;SDS011;21441;52.190;20.910;2024-01-16T09:16:47;4.72;;;2.30;;
35330;SDS011;21441;52.190;20.910;2024-01-16T09:19:16;4.53;;;2.25;;
35330;SDS011;21441;52.190;20.910;2024-01-16T09:21:43;3.65;;;2.20;;
35330;SDS011;21441;52.190;20.910;2024-01-16T09:24:10;2.65;;;1.75;;
35330;SDS011;21441;52.190;20.910;2024-01-16T09:26:38;6.30;;;2.00;;
35330;SDS011;21441;52.190;20.910;2024-01-16T09:29:05;3.05;;;1.80;;
35330;SDS011;21441;52.190;20.910;2024-01-16T09:31:32;4.90;;;2.10;;
35330;SDS011;21441;52.190;20.910;2024-01-16T09:33:59;7.63;;;3.72;;
35330;SDS011;21441;52.190;20.910;2024-01-16T09:36:27;3.58;;;2.10;;
35330;SDS011;21441;52.190;20.910;2024-01-16T09:38:55;3.63;;;1.80;;
35330;SDS011;21441;52.190;20.910;2024-01-16T09:41:22;3.85;;;1.98;;
35330;SDS011;21441;52.190;20.910;2024-01-16T09:43:50;5.47;;;1.95;;
35330;SDS011;21441;52.190;20.910;2024-01-16T09:46:17;6.32;;;1.88;;
35330;SDS011;21441;52.190;20.910;2024-01-16T09:48:49;3.08;;;1.88;;
35330;SDS011;21441;52.190;20.910;2024-01-16T09:53:48;5.13;;;2.35;;
35330;SDS011;21441;52.190;20.910;2024-01-16T09:56:16;3.35;;;2.60;;
35330;SDS011;21441;52.190;20.910;2024-01-16T09:58:44;3.57;;;1.90;;
35330;SDS011;21441;52.190;20.910;2024-01-16T10:01:15;4.28;;;2.28;;
35330;SDS011;21441;52.190;20.910;2024-01-16T10:03:43;3.25;;;2.42;;
35330;SDS011;21441;52.190;20.910;2024-01-16T10:06:11;5.38;;;2.70;;
35330;SDS011;21441;52.190;20.910;2024-01-16T10:08:40;5.15;;;2.60;;
35330;SDS011;21441;52.190;20.910;2024-01-16T10:11:09;6.38;;;3.25;;
35330;SDS011;21441;52.190;20.910;2024-01-16T10:13:36;5.65;;;3.40;;
35330;SDS011;21441;52.190;20.910;2024-01-16T10:16:03;6.20;;;3.08;;
35330;SDS011;21441;52.190;20.910;2024-01-16T10:18:31;5.60;;;3.00;;
35330;SDS011;21441;52.190;20.910;2024-01-16T10:20:59;7.38;;;3.40;;
35330;SDS011;21441;52.190;20.910;2024-01-16T10:23:27;7.50;;;3.35;;
35330;SDS011;21441;52.190;20.910;2024-01-16T10:28:40;6.85;;;4.00;;
35330;SDS011;21441;52.190;20.910;2024-01-16T10:31:08;6.15;;;3.88;;
35330;SDS011;21441;52.190;20.910;2024-01-16T10:33:36;8.05;;;4.25;;
35330;SDS011;21441;52.190;20.910;2024-01-16T10:36:10;7.30;;;3.55;;
35330;SDS011;21441;52.190;20.910;2024-01-16T10:38:40;7.90;;;3.50;;
35330;SDS011;21441;52.190;20.910;2024-01-16T10:41:10;5.57;;;3.55;;
35330;SDS011;21441;52.190;20.910;2024-01-16T10:43:39;6.85;;;4.43;;
35330;SDS011;21441;52.190;20.910;2024-01-16T10:46:08;9.60;;;4.05;;
35330;SDS011;21441;52.190;20.910;2024-01-16T10:48:38;5.95;;;3.33;;
35330;SDS011;21441;52.190;20.910;2024-01-16T10:51:07;5.90;;;3.65;;
35330;SDS011;21441;52.190;20.910;2024-01-16T10:53:39;6.07;;;4.30;;
35330;SDS011;21441;52.190;20.910;2024-01-16T10:56:11;7.03;;;4.55;;
35330;SDS011;21441;52.190;20.910;2024-01-16T11:01:10;7.30;;;3.70;;
35330;SDS011;21441;52.190;20.910;2024-01-16T11:03:40;6.55;;;3.75;;
35330;SDS011;21441;52.190;20.910;2024-01-16T11:06:16;8.48;;;3.88;;
35330;SDS011;21441;52.190;20.910;2024-01-16T11:08:45;7.07;;;3.75;;
35330;SDS011;21441;52.190;20.910;2024-01-16T11:11:14;7.47;;;3.92;;
35330;SDS011;21441;52.190;20.910;2024-01-16T11:13:42;3.63;;;2.42;;
35330;SDS011;21441;52.190;20.910;2024-01-16T11:16:11;6.57;;;4.07;;
35330;SDS011;21441;52.190;20.910;2024-01-16T11:18:39;5.32;;;3.10;;
35330;SDS011;21441;52.190;20.910;2024-01-16T11:21:07;6.07;;;3.95;;
35330;SDS011;21441;52.190;20.910;2024-01-16T11:23:36;4.75;;;3.60;;
35330;SDS011;21441;52.190;20.910;2024-01-16T11:28:53;6.25;;;3.83;;
35330;SDS011;21441;52.190;20.910;2024-01-16T11:31:28;9.65;;;3.67;;
35330;SDS011;21441;52.190;20.910;2024-01-16T11:33:57;6.07;;;3.70;;
35330;SDS011;21441;52.190;20.910;2024-01-16T11:36:43;5.88;;;3.25;;
35330;SDS011;21441;52.190;20.910;2024-01-16T11:39:17;5.90;;;3.00;;
35330;SDS011;21441;52.190;20.910;2024-01-16T11:41:50;5.40;;;3.58;;
35330;SDS011;21441;52.190;20.910;2024-01-16T11:44:37;7.82;;;3.53;;
35330;SDS011;21441;52.190;20.910;2024-01-16T11:47:15;5.55;;;2.75;;
35330;SDS011;21441;52.190;20.910;2024-01-16T11:49:44;6.32;;;3.15;;
35330;SDS011;21441;52.190;20.910;2024-01-16T11:52:11;4.78;;;3.03;;
35330;SDS011;21441;52.190;20.910;2024-01-16T11:54:39;8.75;;;3.45;;
35330;SDS011;21441;52.190;20.910;2024-01-16T11:57:30;5.35;;;3.35;;
35330;SDS011;21441;52.190;20.910;2024-01-16T12:00:20;5.75;;;3.28;;
35330;SDS011;21441;52.190;20.910;2024-01-16T12:02:53;5.55;;;2.75;;
35330;SDS011;21441;52.190;20.910;2024-01-16T12:05:23;8.35;;;3.50;;
35330;SDS011;21441;52.190;20.910;2024-01-16T12:07:50;9.25;;;4.35;;
35330;SDS011;21441;52.190;20.910;2024-01-16T12:10:20;6.03;;;3.47;;
35330;SDS011;21441;52.190;20.910;2024-01-16T12:12:50;4.72;;;2.60;;
35330;SDS011;21441;52.190;20.910;2024-01-16T12:15:23;6.72;;;3.63;;
35330;SDS011;21441;52.190;20.910;2024-01-16T12:17:53;8.20;;;3.33;;
35330;SDS011;21441;52.190;20.910;2024-01-16T12:20:22;6.28;;;2.55;;
35330;SDS011;21441;52.190;20.910;2024-01-16T12:22:53;5.05;;;2.85;;
35330;SDS011;21441;52.190;20.910;2024-01-16T12:25:22;3.53;;;2.10;;
35330;SDS011;21441;52.190;20.910;2024-01-16T12:27:58;4.07;;;2.25;;
35330;SDS011;21441;52.190;20.910;2024-01-16T12:30:27;4.93;;;2.78;;
35330;SDS011;21441;52.190;20.910;2024-01-16T12:33:02;3.55;;;2.38;;
35330;SDS011;21441;52.190;20.910;2024-01-16T12:35:33;6.63;;;2.80;;
35330;SDS011;21441;52.190;20.910;2024-01-16T12:38:01;9.48;;;3.03;;
35330;SDS011;21441;52.190;20.910;2024-01-16T12:40:31;4.43;;;2.35;;
35330;SDS011;21441;52.190;20.910;2024-01-16T12:43:07;5.85;;;2.78;;
35330;SDS011;21441;52.190;20.910;2024-01-16T12:45:35;5.93;;;3.13;;
35330;SDS011;21441;52.190;20.910;2024-01-16T12:48:03;4.72;;;3.05;;
35330;SDS011;21441;52.190;20.910;2024-01-16T12:50:32;4.90;;;3.10;;
35330;SDS011;21441;52.190;20.910;2024-01-16T12:53:00;6.07;;;2.72;;
35330;SDS011;21441;52.190;20.910;2024-01-16T12:55:29;7.70;;;2.33;;
35330;SDS011;21441;52.190;20.910;2024-01-16T12:58:16;2.67;;;1.80;;
35330;SDS011;21441;52.190;20.910;2024-01-16T13:00:45;5.88;;;2.65;;
35330;SDS011;21441;52.190;20.910;2024-01-16T13:03:15;4.05;;;2.33;;
35330;SDS011;21441;52.190;20.910;2024-01-16T13:05:44;5.22;;;2.53;;
35330;SDS011;21441;52.190;20.910;2024-01-16T13:08:18;6.50;;;2.80;;
35330;SDS011;21441;52.190;20.910;2024-01-16T13:10:46;3.63;;;2.00;;
35330;SDS011;21441;52.190;20.910;2024-01-16T13:13:14;6.82;;;2.40;;
35330;SDS011;21441;52.190;20.910;2024-01-16T13:15:44;4.45;;;2.67;;
35330;SDS011;21441;52.190;20.910;2024-01-16T13:18:21;3.72;;;1.92;;
35330;SDS011;21441;52.190;20.910;2024-01-16T13:20:49;4.75;;;2.65;;
35330;SDS011;21441;52.190;20.910;2024-01-16T13:23:17;6.78;;;3.25;;
35330;SDS011;21441;52.190;20.910;2024-01-16T13:25:45;7.20;;;3.28;;
35330;SDS011;21441;52.190;20.910;2024-01-16T13:28:13;4.53;;;2.50;;
35330;SDS011;21441;52.190;20.910;2024-01-16T13:30:41;4.95;;;2.63;;
35330;SDS011;21441;52.190;20.910;2024-01-16T13:33:09;7.95;;;3.38;;
35330;SDS011;21441;52.190;20.910;2024-01-16T13:35:38;3.42;;;2.05;;
35330;SDS011;21441;52.190;20.910;2024-01-16T13:38:06;3.75;;;2.22;;
35330;SDS011;21441;52.190;20.910;2024-01-16T13:40:34;7.07;;;2.70;;
35330;SDS011;21441;52.190;20.910;2024-01-16T13:43:02;3.67;;;2.47;;
35330;SDS011;21441;52.190;20.910;2024-01-16T13:45:32;4.22;;;2.25;;
35330;SDS011;21441;52.190;20.910;2024-01-16T13:48:00;4.60;;;2.17;;
35330;SDS011;21441;52.190;20.910;2024-01-16T13:50:30;5.35;;;2.80;;
35330;SDS011;21441;52.190;20.910;2024-01-16T13:52:57;6.25;;;2.65;;
35330;SDS011;21441;52.190;20.910;2024-01-16T13:55:24;6.88;;;2.60;;
35330;SDS011;21441;52.190;20.910;2024-01-16T13:57:52;8.05;;;3.22;;
35330;SDS011;21441;52.190;20.910;2024-01-16T14:00:19;6.88;;;2.85;;
35330;SDS011;21441;52.190;20.910;2024-01-16T14:02:46;5.93;;;2.80;;
35330;SDS011;21441;52.190;20.910;2024-01-16T14:05:16;4.18;;;2.30;;
35330;SDS011;21441;52.190;20.910;2024-01-16T14:07:46;6.22;;;2.70;;
35330;SDS011;21441;52.190;20.910;2024-01-16T14:10:16;5.50;;;2.53;;
35330;SDS011;21441;52.190;20.910;2024-01-16T14:12:45;7.80;;;3.10;;
35330;SDS011;21441;52.190;20.910;2024-01-16T14:15:15;6.15;;;2.67;;
35330;SDS011;21441;52.190;20.910;2024-01-16T14:20:12;4.72;;;2.97;;
35330;SDS011;21441;52.190;20.910;2024-01-16T14:22:40;5.57;;;3.17;;
35330;SDS011;21441;52.190;20.910;2024-01-16T14:25:09;4.90;;;2.58;;
35330;SDS011;21441;52.190;20.910;2024-01-16T14:27:38;6.57;;;2.78;;
35330;SDS011;21441;52.190;20.910;2024-01-16T14:30:06;8.10;;;3.28;;
35330;SDS011;21441;52.190;20.910;2024-01-16T14:32:36;7.20;;;3.60;;
35330;SDS011;21441;52.190;20.910;2024-01-16T14:35:04;8.98;;;4.10;;
35330;SDS011;21441;52.190;20.910;2024-01-16T14:37:32;8.18;;;3.55;;
35330;SDS011;21441;52.190;20.910;2024-01-16T14:40:01;4.85;;;2.55;;
35330;SDS011;21441;52.190;20.910;2024-01-16T14:42:39;7.93;;;3.05;;
35330;SDS011;21441;52.190;20.910;2024-01-16T14:45:07;3.65;;;2.55;;
35330;SDS011;21441;52.190;20.910;2024-01-16T14:47:36;4.63;;;2.75;;
35330;SDS011;21441;52.190;20.910;2024-01-16T14:50:03;7.38;;;3.70;;
35330;SDS011;21441;52.190;20.910;2024-01-16T14:52:31;7.82;;;4.15;;
35330;SDS011;21441;52.190;20.910;2024-01-16T14:54:59;5.90;;;3.45;;
35330;SDS011;21441;52.190;20.910;2024-01-16T14:57:27;10.07;;;4.20;;
35330;SDS011;21441;52.190;20.910;2024-01-16T14:59:57;8.18;;;3.65;;